LDOV weather

Vinkovci Sopot Airport
Vinkovci, Vukovar-Srijem County, Croatia

Public forecast

Using degrees Celsius for public forecast. Weather courtesy of forecast.io.

Closest aviation weather report (METAR) to Vinkovci Sopot Airport

Closest report is Osijek Airport, 12.9 nm (23.9 km) N. Retrieved 2020/05/26 16:30 UTC (0 seconds ago):

LDOS 261630Z 34009KT CAVOK 17/10 Q1024

Closest aviation forecast (TAF) to Vinkovci Sopot Airport

Closest forecast is Osijek Airport, 12.9 nm (23.9 km) N. Retrieved 2020/05/26 12:27 UTC (4 hours ago):

TAF LDOS 261125Z 2612/2712 35010KT 9999 SCT045 TX22/2613Z TN11/2704Z PROB40 TEMPO 2612/2622 35015G25KT TSRA FEW030CB BKN040